sensor_id;sensor_type;location;lat;lon;timestamp;temperature;humidity
18043;DHT22;9146;48.074;11.968;2022-08-03T00:01:04;17.00;99.90
18043;DHT22;9146;48.074;11.968;2022-08-03T00:03:32;17.00;99.90
18043;DHT22;9146;48.074;11.968;2022-08-03T00:05:59;17.00;99.90
18043;DHT22;9146;48.074;11.968;2022-08-03T00:08:26;17.00;99.90
18043;DHT22;9146;48.074;11.968;2022-08-03T00:10:53;17.00;99.90
18043;DHT22;9146;48.074;11.968;2022-08-03T00:13:20;16.90;99.90
18043;DHT22;9146;48.074;11.968;2022-08-03T00:15:47;16.90;99.90
18043;DHT22;9146;48.074;11.968;2022-08-03T00:18:15;16.90;99.90
18043;DHT22;9146;48.074;11.968;2022-08-03T00:20:42;16.80;99.90
18043;DHT22;9146;48.074;11.968;2022-08-03T00:23:09;16.70;99.90
18043;DHT22;9146;48.074;11.968;2022-08-03T00:25:37;16.70;99.90
18043;DHT22;9146;48.074;11.968;2022-08-03T00:28:04;16.70;99.90
18043;DHT22;9146;48.074;11.968;2022-08-03T00:30:32;16.60;99.90
18043;DHT22;9146;48.074;11.968;2022-08-03T00:32:59;16.60;99.90
18043;DHT22;9146;48.074;11.968;2022-08-03T00:35:28;16.50;99.90
18043;DHT22;9146;48.074;11.968;2022-08-03T00:37:56;16.50;99.90
18043;DHT22;9146;48.074;11.968;2022-08-03T00:40:23;16.50;99.90
18043;DHT22;9146;48.074;11.968;2022-08-03T00:42:52;16.50;99.90
18043;DHT22;9146;48.074;11.968;2022-08-03T00:45:21;16.50;99.90
18043;DHT22;9146;48.074;11.968;2022-08-03T00:47:48;16.40;99.90
18043;DHT22;9146;48.074;11.968;2022-08-03T00:50:16;16.40;99.90
18043;DHT22;9146;48.074;11.968;2022-08-03T00:52:45;16.40;99.90
18043;DHT22;9146;48.074;11.968;2022-08-03T00:55:12;16.40;99.90
18043;DHT22;9146;48.074;11.968;2022-08-03T00:57:41;16.30;99.90
18043;DHT22;9146;48.074;11.968;2022-08-03T01:00:11;16.30;99.90
18043;DHT22;9146;48.074;11.968;2022-08-03T01:02:39;16.30;99.90
18043;DHT22;9146;48.074;11.968;2022-08-03T01:05:06;16.30;99.90
18043;DHT22;9146;48.074;11.968;2022-08-03T01:07:41;16.20;99.90
18043;DHT22;9146;48.074;11.968;2022-08-03T01:10:18;16.20;99.90
18043;DHT22;9146;48.074;11.968;2022-08-03T01:12:53;16.10;99.90
18043;DHT22;9146;48.074;11.968;2022-08-03T01:15:27;16.10;99.90
18043;DHT22;9146;48.074;11.968;2022-08-03T01:17:59;16.10;99.90
18043;DHT22;9146;48.074;11.968;2022-08-03T01:20:32;16.00;99.90
18043;DHT22;9146;48.074;11.968;2022-08-03T01:23:15;16.00;99.90
18043;DHT22;9146;48.074;11.968;2022-08-03T01:26:02;16.00;99.90
18043;DHT22;9146;48.074;11.968;2022-08-03T01:31:38;15.90;99.90
18043;DHT22;9146;48.074;11.968;2022-08-03T01:34:07;15.90;99.90
18043;DHT22;9146;48.074;11.968;2022-08-03T01:36:39;15.90;99.90
18043;DHT22;9146;48.074;11.968;2022-08-03T01:39:09;15.90;99.90
18043;DHT22;9146;48.074;11.968;2022-08-03T01:41:41;15.80;99.90
18043;DHT22;9146;48.074;11.968;2022-08-03T01:44:10;15.80;99.90
18043;DHT22;9146;48.074;11.968;2022-08-03T01:46:41;15.70;99.90
18043;DHT22;9146;48.074;11.968;2022-08-03T01:49:10;15.70;99.90
18043;DHT22;9146;48.074;11.968;2022-08-03T01:51:41;15.70;99.90
18043;DHT22;9146;48.074;11.968;2022-08-03T01:54:09;15.70;99.90
18043;DHT22;9146;48.074;11.968;2022-08-03T01:56:37;15.70;99.90
18043;DHT22;9146;48.074;11.968;2022-08-03T01:59:06;15.70;99.90
18043;DHT22;9146;48.074;11.968;2022-08-03T02:01:35;15.70;99.90
18043;DHT22;9146;48.074;11.968;2022-08-03T02:04:05;15.70;99.90
18043;DHT22;9146;48.074;11.968;2022-08-03T02:06:33;15.70;99.90
18043;DHT22;9146;48.074;11.968;2022-08-03T02:09:02;15.60;99.90
18043;DHT22;9146;48.074;11.968;2022-08-03T02:11:30;15.60;99.90
18043;DHT22;9146;48.074;11.968;2022-08-03T02:14:00;15.60;99.90
18043;DHT22;9146;48.074;11.968;2022-08-03T02:16:30;15.50;99.90
18043;DHT22;9146;48.074;11.968;2022-08-03T02:18:59;15.50;99.90
18043;DHT22;9146;48.074;11.968;2022-08-03T02:21:29;15.50;99.90
18043;DHT22;9146;48.074;11.968;2022-08-03T02:23:57;15.40;99.90
18043;DHT22;9146;48.074;11.968;2022-08-03T02:26:28;15.40;99.90
18043;DHT22;9146;48.074;11.968;2022-08-03T02:28:58;15.30;99.90
18043;DHT22;9146;48.074;11.968;2022-08-03T02:31:29;15.30;99.90
18043;DHT22;9146;48.074;11.968;2022-08-03T02:33:59;15.30;99.90
18043;DHT22;9146;48.074;11.968;2022-08-03T02:36:30;15.30;99.90
18043;DHT22;9146;48.074;11.968;2022-08-03T02:39:00;15.30;99.90
18043;DHT22;9146;48.074;11.968;2022-08-03T02:41:31;15.20;99.90
18043;DHT22;9146;48.074;11.968;2022-08-03T02:44:01;15.20;99.90
18043;DHT22;9146;48.074;11.968;2022-08-03T02:46:31;15.20;99.90
18043;DHT22;9146;48.074;11.968;2022-08-03T02:48:59;15.20;99.90
18043;DHT22;9146;48.074;11.968;2022-08-03T02:51:31;15.10;99.90
18043;DHT22;9146;48.074;11.968;2022-08-03T02:54:01;15.10;99.90
18043;DHT22;9146;48.074;11.968;2022-08-03T02:56:29;15.10;99.90
18043;DHT22;9146;48.074;11.968;2022-08-03T02:58:57;15.10;99.90
18043;DHT22;9146;48.074;11.968;2022-08-03T03:01:26;15.00;99.90
18043;DHT22;9146;48.074;11.968;2022-08-03T03:03:55;15.00;99.90
18043;DHT22;9146;48.074;11.968;2022-08-03T03:06:24;15.00;99.90
18043;DHT22;9146;48.074;11.968;2022-08-03T03:08:53;15.00;99.90
18043;DHT22;9146;48.074;11.968;2022-08-03T03:11:21;15.00;99.90
18043;DHT22;9146;48.074;11.968;2022-08-03T03:13:50;15.00;99.90
18043;DHT22;9146;48.074;11.968;2022-08-03T03:16:17;15.00;99.90
18043;DHT22;9146;48.074;11.968;2022-08-03T03:18:46;15.00;99.90
18043;DHT22;9146;48.074;11.968;2022-08-03T03:21:17;14.90;99.90
18043;DHT22;9146;48.074;11.968;2022-08-03T03:23:46;14.90;99.90
18043;DHT22;9146;48.074;11.968;2022-08-03T03:26:15;14.90;99.90
18043;DHT22;9146;48.074;11.968;2022-08-03T03:28:43;14.90;99.90
18043;DHT22;9146;48.074;11.968;2022-08-03T03:31:10;14.80;99.90
18043;DHT22;9146;48.074;11.968;2022-08-03T03:33:37;14.80;99.90
18043;DHT22;9146;48.074;11.968;2022-08-03T03:36:05;14.80;99.90
18043;DHT22;9146;48.074;11.968;2022-08-03T03:38:33;14.80;99.90
18043;DHT22;9146;48.074;11.968;2022-08-03T03:41:00;14.80;99.90
18043;DHT22;9146;48.074;11.968;2022-08-03T03:43:28;14.80;99.90
18043;DHT22;9146;48.074;11.968;2022-08-03T03:45:57;14.70;99.90
18043;DHT22;9146;48.074;11.968;2022-08-03T03:48:24;14.70;99.90
18043;DHT22;9146;48.074;11.968;2022-08-03T03:50:52;14.70;99.90
18043;DHT22;9146;48.074;11.968;2022-08-03T03:53:19;14.70;99.90
18043;DHT22;9146;48.074;11.968;2022-08-03T03:55:46;14.70;99.90
18043;DHT22;9146;48.074;11.968;2022-08-03T03:58:13;14.70;99.90
18043;DHT22;9146;48.074;11.968;2022-08-03T04:00:41;14.70;99.90
18043;DHT22;9146;48.074;11.968;2022-08-03T04:03:09;14.70;99.90
18043;DHT22;9146;48.074;11.968;2022-08-03T04:05:37;14.70;99.90
18043;DHT22;9146;48.074;11.968;2022-08-03T04:08:21;14.80;99.90
18043;DHT22;9146;48.074;11.968;2022-08-03T04:11:12;14.80;99.90
18043;DHT22;9146;48.074;11.968;2022-08-03T04:13:43;14.80;99.90
18043;DHT22;9146;48.074;11.968;2022-08-03T04:16:15;14.80;99.90
18043;DHT22;9146;48.074;11.968;2022-08-03T04:18:46;14.80;99.90
18043;DHT22;9146;48.074;11.968;2022-08-03T04:21:15;14.90;99.90
18043;DHT22;9146;48.074;11.968;2022-08-03T04:23:47;14.90;99.90
18043;DHT22;9146;48.074;11.968;2022-08-03T04:26:17;15.00;99.90
18043;DHT22;9146;48.074;11.968;2022-08-03T04:28:46;15.10;99.90
18043;DHT22;9146;48.074;11.968;2022-08-03T04:31:16;15.20;99.90
18043;DHT22;9146;48.074;11.968;2022-08-03T04:33:44;15.40;99.90
18043;DHT22;9146;48.074;11.968;2022-08-03T04:36:16;15.60;99.90
18043;DHT22;9146;48.074;11.968;2022-08-03T04:38:54;15.80;99.90
18043;DHT22;9146;48.074;11.968;2022-08-03T04:41:24;16.00;99.90
18043;DHT22;9146;48.074;11.968;2022-08-03T04:43:54;16.20;99.90
18043;DHT22;9146;48.074;11.968;2022-08-03T04:46:25;16.50;99.90
18043;DHT22;9146;48.074;11.968;2022-08-03T04:48:54;16.80;99.90
18043;DHT22;9146;48.074;11.968;2022-08-03T04:51:22;17.10;99.90
18043;DHT22;9146;48.074;11.968;2022-08-03T04:53:49;17.30;99.90
18043;DHT22;9146;48.074;11.968;2022-08-03T04:56:16;17.50;99.90
18043;DHT22;9146;48.074;11.968;2022-08-03T04:58:43;17.70;99.90
18043;DHT22;9146;48.074;11.968;2022-08-03T05:01:09;18.00;99.90
18043;DHT22;9146;48.074;11.968;2022-08-03T05:03:38;18.20;99.90
18043;DHT22;9146;48.074;11.968;2022-08-03T05:06:05;18.50;99.90
18043;DHT22;9146;48.074;11.968;2022-08-03T05:08:32;18.60;99.90
18043;DHT22;9146;48.074;11.968;2022-08-03T05:11:00;18.80;99.90
18043;DHT22;9146;48.074;11.968;2022-08-03T05:13:27;19.00;99.90
18043;DHT22;9146;48.074;11.968;2022-08-03T05:15:54;19.10;99.90
18043;DHT22;9146;48.074;11.968;2022-08-03T05:18:21;19.30;99.90
18043;DHT22;9146;48.074;11.968;2022-08-03T05:20:49;19.40;99.90
18043;DHT22;9146;48.074;11.968;2022-08-03T05:23:16;19.50;99.90
18043;DHT22;9146;48.074;11.968;2022-08-03T05:25:43;19.60;99.90
18043;DHT22;9146;48.074;11.968;2022-08-03T05:28:10;19.70;99.90
18043;DHT22;9146;48.074;11.968;2022-08-03T05:30:37;19.80;99.90
18043;DHT22;9146;48.074;11.968;2022-08-03T05:33:04;19.90;99.90
18043;DHT22;9146;48.074;11.968;2022-08-03T05:35:31;19.90;99.90
18043;DHT22;9146;48.074;11.968;2022-08-03T05:38:01;19.90;99.90
18043;DHT22;9146;48.074;11.968;2022-08-03T05:40:28;20.00;99.90
18043;DHT22;9146;48.074;11.968;2022-08-03T05:42:55;20.00;99.90
18043;DHT22;9146;48.074;11.968;2022-08-03T05:45:22;20.10;99.90
18043;DHT22;9146;48.074;11.968;2022-08-03T05:47:49;20.10;99.90
18043;DHT22;9146;48.074;11.968;2022-08-03T05:50:17;20.20;99.90
18043;DHT22;9146;48.074;11.968;2022-08-03T05:52:45;20.20;99.90
18043;DHT22;9146;48.074;11.968;2022-08-03T05:55:13;20.20;99.90
18043;DHT22;9146;48.074;11.968;2022-08-03T05:57:40;20.30;99.90
18043;DHT22;9146;48.074;11.968;2022-08-03T06:00:10;20.30;99.90
18043;DHT22;9146;48.074;11.968;2022-08-03T06:02:37;20.40;99.90
18043;DHT22;9146;48.074;11.968;2022-08-03T06:05:06;20.40;99.90
18043;DHT22;9146;48.074;11.968;2022-08-03T06:07:33;20.40;99.90
18043;DHT22;9146;48.074;11.968;2022-08-03T06:10:00;20.40;99.90
18043;DHT22;9146;48.074;11.968;2022-08-03T06:12:29;20.40;99.90
18043;DHT22;9146;48.074;11.968;2022-08-03T06:14:56;20.40;99.90
18043;DHT22;9146;48.074;11.968;2022-08-03T06:17:23;20.40;99.90
18043;DHT22;9146;48.074;11.968;2022-08-03T06:19:51;20.50;99.90
18043;DHT22;9146;48.074;11.968;2022-08-03T06:22:19;20.60;99.90
18043;DHT22;9146;48.074;11.968;2022-08-03T06:24:45;20.60;99.90
18043;DHT22;9146;48.074;11.968;2022-08-03T06:27:12;20.70;99.90
18043;DHT22;9146;48.074;11.968;2022-08-03T06:29:41;20.80;99.90
18043;DHT22;9146;48.074;11.968;2022-08-03T06:32:08;20.90;99.90
18043;DHT22;9146;48.074;11.968;2022-08-03T06:34:34;21.00;99.90
18043;DHT22;9146;48.074;11.968;2022-08-03T06:37:01;21.00;99.90
18043;DHT22;9146;48.074;11.968;2022-08-03T06:39:29;21.10;99.90
18043;DHT22;9146;48.074;11.968;2022-08-03T06:41:56;21.20;99.90
18043;DHT22;9146;48.074;11.968;2022-08-03T06:44:23;21.20;99.90
18043;DHT22;9146;48.074;11.968;2022-08-03T06:46:51;21.20;99.90
18043;DHT22;9146;48.074;11.968;2022-08-03T06:49:18;21.30;99.90
18043;DHT22;9146;48.074;11.968;2022-08-03T06:51:45;21.40;99.90
18043;DHT22;9146;48.074;11.968;2022-08-03T06:54:12;21.50;99.90
18043;DHT22;9146;48.074;11.968;2022-08-03T06:56:39;21.50;99.90
18043;DHT22;9146;48.074;11.968;2022-08-03T06:59:06;21.60;99.90
18043;DHT22;9146;48.074;11.968;2022-08-03T07:01:33;21.60;99.90
18043;DHT22;9146;48.074;11.968;2022-08-03T07:04:01;21.70;99.90
18043;DHT22;9146;48.074;11.968;2022-08-03T07:06:28;21.70;99.90
18043;DHT22;9146;48.074;11.968;2022-08-03T07:08:56;21.80;99.90
18043;DHT22;9146;48.074;11.968;2022-08-03T07:11:24;21.80;99.90
18043;DHT22;9146;48.074;11.968;2022-08-03T07:13:51;21.80;99.90
18043;DHT22;9146;48.074;11.968;2022-08-03T07:16:18;22.00;99.90
18043;DHT22;9146;48.074;11.968;2022-08-03T07:18:45;22.00;99.90
18043;DHT22;9146;48.074;11.968;2022-08-03T07:21:13;22.20;99.90
18043;DHT22;9146;48.074;11.968;2022-08-03T07:23:41;22.30;99.90
18043;DHT22;9146;48.074;11.968;2022-08-03T07:26:08;22.40;99.90
18043;DHT22;9146;48.074;11.968;2022-08-03T07:28:36;22.50;99.90
18043;DHT22;9146;48.074;11.968;2022-08-03T07:31:03;22.60;99.90
18043;DHT22;9146;48.074;11.968;2022-08-03T07:33:29;22.60;99.90
18043;DHT22;9146;48.074;11.968;2022-08-03T07:35:56;22.60;99.90
18043;DHT22;9146;48.074;11.968;2022-08-03T07:38:25;22.60;99.90
18043;DHT22;9146;48.074;11.968;2022-08-03T07:40:52;22.70;99.90
18043;DHT22;9146;48.074;11.968;2022-08-03T07:43:19;22.80;99.90
18043;DHT22;9146;48.074;11.968;2022-08-03T07:45:46;22.90;99.90
18043;DHT22;9146;48.074;11.968;2022-08-03T07:48:13;23.00;99.90
18043;DHT22;9146;48.074;11.968;2022-08-03T07:50:40;23.10;99.90
18043;DHT22;9146;48.074;11.968;2022-08-03T07:53:07;23.20;99.90
18043;DHT22;9146;48.074;11.968;2022-08-03T07:55:35;23.30;99.90
18043;DHT22;9146;48.074;11.968;2022-08-03T07:58:04;23.50;99.90
18043;DHT22;9146;48.074;11.968;2022-08-03T08:00:32;23.50;99.90
18043;DHT22;9146;48.074;11.968;2022-08-03T08:02:59;23.60;99.90
18043;DHT22;9146;48.074;11.968;2022-08-03T08:05:26;23.70;99.90
18043;DHT22;9146;48.074;11.968;2022-08-03T08:07:54;23.80;99.90
18043;DHT22;9146;48.074;11.968;2022-08-03T08:10:21;23.90;99.90
18043;DHT22;9146;48.074;11.968;2022-08-03T08:12:49;23.90;99.90
18043;DHT22;9146;48.074;11.968;2022-08-03T08:15:16;24.00;99.90
18043;DHT22;9146;48.074;11.968;2022-08-03T08:17:44;24.00;99.90
18043;DHT22;9146;48.074;11.968;2022-08-03T08:20:16;24.20;99.90
18043;DHT22;9146;48.074;11.968;2022-08-03T08:22:43;24.20;99.90
18043;DHT22;9146;48.074;11.968;2022-08-03T08:25:10;24.30;99.90
18043;DHT22;9146;48.074;11.968;2022-08-03T08:27:41;24.40;99.90
18043;DHT22;9146;48.074;11.968;2022-08-03T08:30:12;24.40;99.90
18043;DHT22;9146;48.074;11.968;2022-08-03T08:32:40;24.50;99.90
18043;DHT22;9146;48.074;11.968;2022-08-03T08:35:08;24.60;99.90
18043;DHT22;9146;48.074;11.968;2022-08-03T08:37:35;24.60;99.90
18043;DHT22;9146;48.074;11.968;2022-08-03T08:40:03;24.70;99.90
18043;DHT22;9146;48.074;11.968;2022-08-03T08:42:31;24.70;99.90
18043;DHT22;9146;48.074;11.968;2022-08-03T08:44:59;24.80;99.90
18043;DHT22;9146;48.074;11.968;2022-08-03T08:47:32;24.90;99.90
18043;DHT22;9146;48.074;11.968;2022-08-03T08:50:00;25.00;99.90
18043;DHT22;9146;48.074;11.968;2022-08-03T08:52:29;25.00;99.90
18043;DHT22;9146;48.074;11.968;2022-08-03T08:54:58;25.10;99.90
18043;DHT22;9146;48.074;11.968;2022-08-03T08:57:28;25.20;99.90
18043;DHT22;9146;48.074;11.968;2022-08-03T08:59:55;25.20;99.90
18043;DHT22;9146;48.074;11.968;2022-08-03T09:02:22;25.30;99.90
18043;DHT22;9146;48.074;11.968;2022-08-03T09:04:52;25.40;99.90
18043;DHT22;9146;48.074;11.968;2022-08-03T09:07:19;25.50;99.90
18043;DHT22;9146;48.074;11.968;2022-08-03T09:09:46;25.60;99.90
18043;DHT22;9146;48.074;11.968;2022-08-03T09:12:13;25.60;99.90
18043;DHT22;9146;48.074;11.968;2022-08-03T09:14:41;25.70;99.90
18043;DHT22;9146;48.074;11.968;2022-08-03T09:17:08;25.70;99.90
18043;DHT22;9146;48.074;11.968;2022-08-03T09:19:35;25.80;99.90
18043;DHT22;9146;48.074;11.968;2022-08-03T09:22:12;25.90;99.90
18043;DHT22;9146;48.074;11.968;2022-08-03T09:24:53;26.00;99.90
18043;DHT22;9146;48.074;11.968;2022-08-03T09:27:21;26.10;99.90
18043;DHT22;9146;48.074;11.968;2022-08-03T09:29:49;26.20;99.90
18043;DHT22;9146;48.074;11.968;2022-08-03T09:32:19;26.20;99.90
18043;DHT22;9146;48.074;11.968;2022-08-03T09:34:47;26.30;99.90
18043;DHT22;9146;48.074;11.968;2022-08-03T09:37:16;26.40;99.90
18043;DHT22;9146;48.074;11.968;2022-08-03T09:39:44;26.40;99.90
18043;DHT22;9146;48.074;11.968;2022-08-03T09:42:13;26.50;99.90
18043;DHT22;9146;48.074;11.968;2022-08-03T09:44:41;26.50;99.90
18043;DHT22;9146;48.074;11.968;2022-08-03T09:47:09;26.60;99.90
18043;DHT22;9146;48.074;11.968;2022-08-03T09:49:37;26.60;99.90
18043;DHT22;9146;48.074;11.968;2022-08-03T09:52:12;26.70;99.90
18043;DHT22;9146;48.074;11.968;2022-08-03T09:54:42;26.70;99.90
18043;DHT22;9146;48.074;11.968;2022-08-03T09:57:19;26.80;99.90
18043;DHT22;9146;48.074;11.968;2022-08-03T09:59:47;26.90;99.90
18043;DHT22;9146;48.074;11.968;2022-08-03T10:02:23;26.90;99.90
18043;DHT22;9146;48.074;11.968;2022-08-03T10:04:51;27.00;99.90
18043;DHT22;9146;48.074;11.968;2022-08-03T10:07:19;27.00;99.90
18043;DHT22;9146;48.074;11.968;2022-08-03T10:09:57;27.10;99.70
18043;DHT22;9146;48.074;11.968;2022-08-03T10:12:27;27.20;98.60
18043;DHT22;9146;48.074;11.968;2022-08-03T10:14:55;27.30;97.60
18043;DHT22;9146;48.074;11.968;2022-08-03T10:17:22;27.40;96.70
18043;DHT22;9146;48.074;11.968;2022-08-03T10:19:49;27.50;97.20
18043;DHT22;9146;48.074;11.968;2022-08-03T10:22:18;27.50;97.80
18043;DHT22;9146;48.074;11.968;2022-08-03T10:24:52;27.60;97.60
18043;DHT22;9146;48.074;11.968;2022-08-03T10:27:22;27.70;96.80
18043;DHT22;9146;48.074;11.968;2022-08-03T10:29:52;27.80;96.60
18043;DHT22;9146;48.074;11.968;2022-08-03T10:32:24;27.80;95.50
18043;DHT22;9146;48.074;11.968;2022-08-03T10:35:04;27.90;94.20
18043;DHT22;9146;48.074;11.968;2022-08-03T10:37:33;27.90;94.60
18043;DHT22;9146;48.074;11.968;2022-08-03T10:40:04;28.00;94.70
18043;DHT22;9146;48.074;11.968;2022-08-03T10:42:34;28.00;93.20
18043;DHT22;9146;48.074;11.968;2022-08-03T10:45:05;28.00;92.40
18043;DHT22;9146;48.074;11.968;2022-08-03T10:47:33;28.10;91.30
18043;DHT22;9146;48.074;11.968;2022-08-03T10:50:01;28.10;90.40
18043;DHT22;9146;48.074;11.968;2022-08-03T10:52:29;28.20;90.90
18043;DHT22;9146;48.074;11.968;2022-08-03T10:54:56;28.20;88.50
18043;DHT22;9146;48.074;11.968;2022-08-03T10:57:47;28.20;85.70
18043;DHT22;9146;48.074;11.968;2022-08-03T11:00:16;28.30;85.10
18043;DHT22;9146;48.074;11.968;2022-08-03T11:03:09;28.30;79.90
18043;DHT22;9146;48.074;11.968;2022-08-03T11:05:40;28.30;78.70
18043;DHT22;9146;48.074;11.968;2022-08-03T11:08:28;28.30;77.30
18043;DHT22;9146;48.074;11.968;2022-08-03T11:10:58;28.40;77.50
18043;DHT22;9146;48.074;11.968;2022-08-03T11:13:29;28.40;76.90
18043;DHT22;9146;48.074;11.968;2022-08-03T11:16:01;28.40;76.20
18043;DHT22;9146;48.074;11.968;2022-08-03T11:18:29;28.40;75.20
18043;DHT22;9146;48.074;11.968;2022-08-03T11:20:57;28.40;76.30
18043;DHT22;9146;48.074;11.968;2022-08-03T11:23:42;28.40;75.80
18043;DHT22;9146;48.074;11.968;2022-08-03T11:26:11;28.40;76.90
18043;DHT22;9146;48.074;11.968;2022-08-03T11:28:40;28.50;76.30
18043;DHT22;9146;48.074;11.968;2022-08-03T11:31:42;28.50;74.50
18043;DHT22;9146;48.074;11.968;2022-08-03T11:34:11;28.60;73.20
18043;DHT22;9146;48.074;11.968;2022-08-03T11:39:39;28.60;71.50
18043;DHT22;9146;48.074;11.968;2022-08-03T11:42:42;28.60;70.70
18043;DHT22;9146;48.074;11.968;2022-08-03T11:45:14;28.60;68.40
18043;DHT22;9146;48.074;11.968;2022-08-03T11:47:44;28.60;66.90
18043;DHT22;9146;48.074;11.968;2022-08-03T11:50:11;28.60;69.30
18043;DHT22;9146;48.074;11.968;2022-08-03T11:52:40;28.70;67.50
18043;DHT22;9146;48.074;11.968;2022-08-03T11:55:13;28.70;68.90
18043;DHT22;9146;48.074;11.968;2022-08-03T11:57:40;28.70;69.60
18043;DHT22;9146;48.074;11.968;2022-08-03T12:00:33;28.70;69.60
18043;DHT22;9146;48.074;11.968;2022-08-03T12:03:03;28.70;68.40
18043;DHT22;9146;48.074;11.968;2022-08-03T12:05:48;28.80;61.30
18043;DHT22;9146;48.074;11.968;2022-08-03T12:08:28;28.80;60.00
18043;DHT22;9146;48.074;11.968;2022-08-03T12:10:57;28.80;62.20
18043;DHT22;9146;48.074;11.968;2022-08-03T12:13:25;28.90;64.70
18043;DHT22;9146;48.074;11.968;2022-08-03T12:15:55;29.00;64.60
18043;DHT22;9146;48.074;11.968;2022-08-03T12:18:24;29.00;63.60
18043;DHT22;9146;48.074;11.968;2022-08-03T12:20:52;29.00;62.50
18043;DHT22;9146;48.074;11.968;2022-08-03T12:23:28;29.10;61.20
18043;DHT22;9146;48.074;11.968;2022-08-03T12:26:01;29.10;60.00
18043;DHT22;9146;48.074;11.968;2022-08-03T12:28:28;29.10;60.80
18043;DHT22;9146;48.074;11.968;2022-08-03T12:31:02;29.10;61.00
18043;DHT22;9146;48.074;11.968;2022-08-03T12:33:31;29.10;61.10
18043;DHT22;9146;48.074;11.968;2022-08-03T12:36:04;29.10;61.80
18043;DHT22;9146;48.074;11.968;2022-08-03T12:38:32;29.20;60.90
18043;DHT22;9146;48.074;11.968;2022-08-03T12:41:02;29.20;58.90
18043;DHT22;9146;48.074;11.968;2022-08-03T12:43:29;29.30;58.40
18043;DHT22;9146;48.074;11.968;2022-08-03T12:46:15;29.30;56.80
18043;DHT22;9146;48.074;11.968;2022-08-03T12:49:07;29.30;57.20
18043;DHT22;9146;48.074;11.968;2022-08-03T12:51:37;29.30;55.00
18043;DHT22;9146;48.074;11.968;2022-08-03T12:54:05;29.30;55.00
18043;DHT22;9146;48.074;11.968;2022-08-03T12:56:32;29.30;55.00
18043;DHT22;9146;48.074;11.968;2022-08-03T12:58:59;29.40;55.40
18043;DHT22;9146;48.074;11.968;2022-08-03T13:01:35;29.40;54.70
18043;DHT22;9146;48.074;11.968;2022-08-03T13:04:02;29.50;55.50
18043;DHT22;9146;48.074;11.968;2022-08-03T13:06:31;29.50;55.40
18043;DHT22;9146;48.074;11.968;2022-08-03T13:09:04;29.50;55.30
18043;DHT22;9146;48.074;11.968;2022-08-03T13:11:31;29.60;54.60
18043;DHT22;9146;48.074;11.968;2022-08-03T13:13:58;29.60;53.30
18043;DHT22;9146;48.074;11.968;2022-08-03T13:16:25;29.60;52.10
18043;DHT22;9146;48.074;11.968;2022-08-03T13:18:54;29.50;52.20
18043;DHT22;9146;48.074;11.968;2022-08-03T13:21:21;29.50;50.60
18043;DHT22;9146;48.074;11.968;2022-08-03T13:23:48;29.50;49.70
18043;DHT22;9146;48.074;11.968;2022-08-03T13:26:15;29.60;49.40
18043;DHT22;9146;48.074;11.968;2022-08-03T13:28:42;29.60;48.90
18043;DHT22;9146;48.074;11.968;2022-08-03T13:31:09;29.60;50.40
18043;DHT22;9146;48.074;11.968;2022-08-03T13:33:36;29.60;50.60
18043;DHT22;9146;48.074;11.968;2022-08-03T13:36:07;29.70;50.20
18043;DHT22;9146;48.074;11.968;2022-08-03T13:38:33;29.70;50.00
18043;DHT22;9146;48.074;11.968;2022-08-03T13:41:01;29.80;50.30
18043;DHT22;9146;48.074;11.968;2022-08-03T13:43:28;29.80;50.20
18043;DHT22;9146;48.074;11.968;2022-08-03T13:45:55;29.80;49.80
18043;DHT22;9146;48.074;11.968;2022-08-03T13:48:22;29.80;50.00
18043;DHT22;9146;48.074;11.968;2022-08-03T13:50:50;29.80;49.30
18043;DHT22;9146;48.074;11.968;2022-08-03T13:53:18;29.80;48.80
18043;DHT22;9146;48.074;11.968;2022-08-03T13:55:45;29.80;48.30
18043;DHT22;9146;48.074;11.968;2022-08-03T13:58:12;29.80;47.50
18043;DHT22;9146;48.074;11.968;2022-08-03T14:00:40;29.80;45.80
18043;DHT22;9146;48.074;11.968;2022-08-03T14:03:07;29.80;44.60
18043;DHT22;9146;48.074;11.968;2022-08-03T14:05:35;29.80;45.60
18043;DHT22;9146;48.074;11.968;2022-08-03T14:08:04;29.80;46.20
18043;DHT22;9146;48.074;11.968;2022-08-03T14:10:36;29.90;46.30
18043;DHT22;9146;48.074;11.968;2022-08-03T14:13:03;29.90;47.00
18043;DHT22;9146;48.074;11.968;2022-08-03T14:15:31;29.90;47.20
18043;DHT22;9146;48.074;11.968;2022-08-03T14:17:58;29.90;47.30
18043;DHT22;9146;48.074;11.968;2022-08-03T14:20:26;30.00;47.00
18043;DHT22;9146;48.074;11.968;2022-08-03T14:22:53;30.00;46.10
18043;DHT22;9146;48.074;11.968;2022-08-03T14:25:20;30.00;46.10
18043;DHT22;9146;48.074;11.968;2022-08-03T14:27:49;30.00;45.40
18043;DHT22;9146;48.074;11.968;2022-08-03T14:30:17;30.00;45.80
18043;DHT22;9146;48.074;11.968;2022-08-03T14:32:44;30.00;45.30
18043;DHT22;9146;48.074;11.968;2022-08-03T14:35:11;30.00;45.80
18043;DHT22;9146;48.074;11.968;2022-08-03T14:37:38;30.10;46.30
18043;DHT22;9146;48.074;11.968;2022-08-03T14:40:06;30.10;46.10
18043;DHT22;9146;48.074;11.968;2022-08-03T14:42:33;30.10;47.00
18043;DHT22;9146;48.074;11.968;2022-08-03T14:45:02;30.10;47.20
18043;DHT22;9146;48.074;11.968;2022-08-03T14:47:30;30.10;47.00
18043;DHT22;9146;48.074;11.968;2022-08-03T14:49:58;30.10;47.50
18043;DHT22;9146;48.074;11.968;2022-08-03T14:55:47;30.20;46.90
18043;DHT22;9146;48.074;11.968;2022-08-03T14:58:15;30.20;46.10
18043;DHT22;9146;48.074;11.968;2022-08-03T15:00:43;30.10;45.80
18043;DHT22;9146;48.074;11.968;2022-08-03T15:03:10;30.20;46.10
18043;DHT22;9146;48.074;11.968;2022-08-03T15:05:37;30.20;46.20
18043;DHT22;9146;48.074;11.968;2022-08-03T15:08:05;30.20;46.30
18043;DHT22;9146;48.074;11.968;2022-08-03T15:10:35;30.30;46.60
18043;DHT22;9146;48.074;11.968;2022-08-03T15:13:02;30.30;46.10
18043;DHT22;9146;48.074;11.968;2022-08-03T15:15:29;30.30;46.70
18043;DHT22;9146;48.074;11.968;2022-08-03T15:17:58;30.40;46.80
18043;DHT22;9146;48.074;11.968;2022-08-03T15:20:25;30.40;47.00
18043;DHT22;9146;48.074;11.968;2022-08-03T15:22:55;30.40;46.60
18043;DHT22;9146;48.074;11.968;2022-08-03T15:25:22;30.40;47.20
18043;DHT22;9146;48.074;11.968;2022-08-03T15:27:49;30.40;47.30
18043;DHT22;9146;48.074;11.968;2022-08-03T15:30:16;30.40;46.90
18043;DHT22;9146;48.074;11.968;2022-08-03T15:32:43;30.50;47.10
18043;DHT22;9146;48.074;11.968;2022-08-03T15:35:13;30.50;46.80
18043;DHT22;9146;48.074;11.968;2022-08-03T15:37:40;30.50;46.80
18043;DHT22;9146;48.074;11.968;2022-08-03T15:40:08;30.50;47.00
18043;DHT22;9146;48.074;11.968;2022-08-03T15:42:36;30.50;46.90
18043;DHT22;9146;48.074;11.968;2022-08-03T15:45:03;30.50;46.40
18043;DHT22;9146;48.074;11.968;2022-08-03T15:47:31;30.50;47.10
18043;DHT22;9146;48.074;11.968;2022-08-03T15:49:58;30.50;47.40
18043;DHT22;9146;48.074;11.968;2022-08-03T15:52:27;30.50;46.40